x

Stingray Point, Va (44058) Weather Station

2:50pm - Sun 20th Apr 2014 All times are EDT. -4 hours from GMT.

  • Wind
    20mph, 25mph gusts
  • Air Temp 54°f
  • Sea Pressure 1027.5mb
  • Stingray Point, Va
  • Stingray Point, Va

More Historic Weather Station data

Upgrade to MSW Pro to gain access to the past 30 days of data for over 8000 Wavebouys and Weather Stations around the globe.

Join Pro

Comparision Forecast

View Surf forecast
   
Sun 04/20 2:50pm  -   -  20 25 mph 1027.5mb - 54f
2:40pm  -   -  20 25 mph 1027.5mb - 53f
2:30pm  -   -  20 27 mph 1027.5mb - 53f
2:20pm  -   -  20 27 mph 1027.5mb - 53f
2:10pm  -   -  20 25 mph 1027.6mb - 54f
2:00pm 2.5ft 4s 22 25 mph 1027.6mb 53f 54f
1:50pm  -   -  22 25 mph 1027.6mb - 54f
1:40pm  -   -  22 25 mph 1027.6mb - 54f
1:30pm  -   -  22 27 mph 1027.6mb - 54f
1:20pm  -   -  22 27 mph 1027.5mb - 54f
1:10pm  -   -  22 27 mph 1027.4mb - 54f
1:00pm 2.5ft 3s 22 27 mph 1027.4mb 53f 54f
12:50pm  -   -  20 25 mph 1027.5mb - 54f
12:40pm  -   -  20 27 mph 1027.6mb - 54f
12:30pm  -   -  22 25 mph 1027.5mb - 54f
12:20pm  -   -  20 25 mph 1027.6mb - 53f
12:10pm  -   -  22 27 mph 1027.5mb - 53f
12:00pm 2.5ft 4s 22 27 mph 1027.6mb 52f 53f
11:50am  -   -  22 25 mph 1027.6mb - 53f
11:40am  -   -  20 25 mph 1027.8mb - 53f
11:30am  -   -  20 25 mph 1027.8mb - 53f
11:20am  -   -  20 25 mph 1027.9mb - 53f
11:10am  -   -  20 25 mph 1027.9mb - 53f
11:00am 3ft 3s 20 25 mph 1027.8mb 52f 53f
10:50am  -   -  20 25 mph 1027.9mb - 53f
10:40am  -   -  18 22 mph 1027.9mb - 53f
10:30am  -   -  20 25 mph 1027.8mb - 53f
10:20am  -   -  18 22 mph 1027.6mb - 53f
10:10am  -   -  20 22 mph 1027.4mb - 53f
10:00am 2.5ft 3s 18 25 mph 1027.4mb 52f 53f
9:50am  -   -  20 27 mph 1027.1mb - 53f
9:40am  -   -  22 27 mph 1027.1mb - 53f
9:30am  -   -  20 27 mph 1027mb - 53f
9:20am  -   -  20 25 mph 1026.8mb - 53f
9:10am  -   -  18 22 mph 1026.9mb - 52f
9:00am 2.5ft 3s 18 22 mph 1026.7mb 52f 52f
8:50am  -   -  20 25 mph 1026.6mb - 52f
8:40am  -   -  20 25 mph 1026.6mb - 52f
8:30am  -   -  20 22 mph 1026.4mb - 52f
8:20am  -   -  18 22 mph 1026.3mb - 52f
8:10am  -   -  20 25 mph 1026mb - 52f
8:00am 2.5ft 3s 20 22 mph 1025.8mb 51f 52f
7:50am  -   -  20 25 mph 1025.5mb - 52f
7:40am  -   -  20 25 mph 1025.4mb - 52f
7:30am  -   -  20 25 mph 1025.4mb - 52f
7:20am  -   -  20 25 mph 1025.4mb - 52f
7:10am  -   -  20 25 mph 1025.3mb - 51f
7:00am 2ft 3s 20 22 mph 1025.4mb 52f 51f
6:50am  -   -  18 22 mph 1025.3mb - 51f
6:40am  -   -  18 20 mph 1025.3mb - 51f
6:30am  -   -  18 22 mph 1025.2mb - 51f
6:20am  -   -  20 25 mph 1025.1mb - 51f
6:10am  -   -  20 22 mph 1025.1mb - 51f
6:00am 2ft 3s 20 22 mph 1024.9mb 52f 51f
5:50am  -   -  18 22 mph 1024.9mb - 51f
5:40am  -   -  18 22 mph 1024.6mb - 52f
5:30am  -   -  18 22 mph 1024.7mb - 52f
5:20am  -   -  16 18 mph 1024.7mb - 52f
5:10am  -   -  16 18 mph 1024.7mb - 52f
5:00am 2ft 3s 16 18 mph 1024.5mb 52f 52f
4:50am  -   -  16 18 mph 1024.4mb - 52f
4:40am  -   -  13 18 mph 1024.4mb - 52f
4:30am  -   -  13 18 mph 1024.3mb - 52f
4:20am  -   -  16 18 mph 1024.4mb - 52f
4:10am  -   -  16 18 mph 1024.3mb - 52f
4:00am 1.6ft 3s 16 18 mph 1024.3mb 52f 52f
3:50am  -   -  16 20 mph 1024.1mb - 52f
3:40am  -   -  16 18 mph 1024.1mb - 52f
3:30am  -   -  16 18 mph 1024.2mb - 52f
3:20am  -   -  13 16 mph 1024.2mb - 52f
3:10am  -   -  16 20 mph 1024.3mb - 52f
3:00am 1ft 3s 13 18 mph 1024.3mb 52f 52f
2:50am  -   -  11 16 mph 1024.4mb - 52f
2:40am  -   -  11 13 mph 1024.5mb - 52f
2:30am  -   -  11 13 mph 1024.7mb - 53f
2:20am  -   -  11 13 mph 1024.7mb - 53f
2:10am  -   -  11 13 mph 1024.6mb - 52f
2:00am 1ft 2s 11 13 mph 1024.6mb 52f 52f
1:50am  -   -  9 13 mph 1024.7mb - 53f
1:40am  -   -  11 13 mph 1024.7mb - 53f
1:30am  -   -  11 13 mph 1024.8mb - 53f
1:20am  -   -  11
mph
1024.9mb - 53f
1:10am  -   -  9 11 mph 1025mb - 53f
1:00am 1ft 3s 9
mph
1025.2mb 52f 53f
12:50am  -   -  7 9 mph 1025.3mb - 52f
12:40am  -   -  7 9 mph 1025.3mb - 53f
12:30am  -   -  7 9 mph 1025.3mb - 53f
12:20am  -   -  7 9 mph 1025.3mb - 53f
12:10am  -   -  7 9 mph 1025.2mb - 53f
12:00am 1ft 2s 9
mph
1025.1mb 53f 53f
Sat 04/19 11:50pm  -   -  9 11 mph 1025.1mb - 53f
11:40pm  -   -  9
mph
1025.1mb - 53f
11:30pm  -   -  9 11 mph 1025mb - 53f
11:20pm  -   -  9 13 mph 1025mb - 53f
11:10pm  -   -  9 11 mph 1024.9mb - 53f
11:00pm 1ft 3s 9 11 mph 1024.8mb 53f 53f
10:50pm  -   -  7 9 mph 1024.9mb - 53f
10:40pm  -   -  9 11 mph 1024.7mb - 53f
10:30pm  -   -  9 11 mph 1024.8mb - 53f
10:20pm  -   -  9 11 mph 1024.8mb - 53f
10:10pm  -   -  9 11 mph 1024.9mb - 53f
10:00pm 1ft 3s 7 9 mph 1024.9mb 53f 53f
9:50pm  -   -  9 11 mph 1024.8mb - 53f
9:40pm  -   -  7 9 mph 1024.8mb - 54f
9:30pm  -   -  9
mph
1024.7mb - 54f
9:20pm  -   -  9 11 mph 1024.6mb - 54f
9:10pm  -   -  9 11 mph 1024.3mb - 54f
9:00pm 0.7ft  -  9
mph
1024.2mb 53f 54f
8:50pm  -   -  7 9 mph 1024.1mb - 54f
8:40pm  -   -  7 9 mph 1024.1mb - 54f
8:30pm  -   -  7
mph
1024.1mb - 54f
8:20pm  -   -  7
mph
1024.1mb - 54f
8:10pm  -   -  7
mph
1024mb - 54f
8:00pm 0.3ft  -  7
mph
1023.9mb 54f 54f
7:50pm  -   -  7
mph
1023.9mb - 54f
7:40pm  -   -  4 7 mph 1023.9mb - 53f
7:30pm  -   -  4 7 mph 1023.9mb - 53f
7:20pm  -   -  7
mph
1023.9mb - 53f
7:10pm  -   -  7 9 mph 1023.9mb - 53f
7:00pm 0.3ft  -  7 9 mph 1023.8mb 53f 54f
6:50pm  -   -  7 9 mph 1023.7mb - 54f
6:40pm  -   -  9
mph
1023.7mb - 54f
6:30pm  -   -  9
mph
1023.7mb - 54f
6:20pm  -   -  7 9 mph 1023.5mb - 54f
6:10pm  -   -  9
mph
1023.4mb - 54f
6:00pm 0.7ft  -  7 9 mph 1023.5mb 53f 54f
5:50pm  -   -  7 9 mph 1023.4mb - 54f
5:40pm  -   -  7 9 mph 1023.4mb - 54f
5:30pm  -   -  7 9 mph 1023.3mb - 54f
5:20pm  -   -  7 9 mph 1023.3mb - 54f
5:10pm  -   -  9
mph
1023.2mb - 54f
5:00pm 1ft 2s 9 11 mph 1023.2mb 53f 54f
4:50pm  -   -  9 11 mph 1023.3mb - 54f
4:40pm  -   -  9
mph
1023.3mb - 54f
4:30pm  -   -  9
mph
1023.4mb - 54f
4:20pm  -   -  7 9 mph 1023.5mb - 54f
4:10pm  -   -  7 11 mph 1023.3mb - 54f
4:00pm 1.3ft 3s 9 11 mph 1023.2mb 53f 54f
3:50pm  -   -  9 11 mph 1023.2mb - 54f
3:40pm  -   -  11 13 mph 1023.3mb - 53f
3:30pm  -   -  9 11 mph 1023.3mb - 53f
3:20pm  -   -  11
mph
1023.5mb - 53f
3:10pm  -   -  9 11 mph 1023.8mb - 53f
3:00pm 1.3ft 3s 9 11 mph 1023.9mb 52f 53f
2:50pm  -   -  9 11 mph 1024mb - 52f
2:40pm  -   -  9 11 mph 1024.1mb - 52f
2:30pm  -   -  11 13 mph 1024.2mb - 52f
2:20pm  -   -  11 13 mph 1024.2mb - 51f
2:10pm  -   -  11 13 mph 1024.4mb - 51f
2:00pm 1.6ft 3s 11 13 mph 1024.5mb 52f 51f
1:50pm  -   -  11 13 mph 1024.5mb - 51f
1:40pm  -   -  11 13 mph 1024.6mb - 51f
1:30pm  -   -  11 13 mph 1024.6mb - 51f
1:20pm  -   -  11 13 mph 1024.7mb - 50f
1:10pm  -   -  11 16 mph 1024.7mb - 50f
1:00pm 2.5ft 3s 13 16 mph 1024.7mb 52f 51f
12:50pm  -   -  13 16 mph 1024.7mb - 50f
12:40pm  -   -  16 18 mph 1024.6mb - 50f
12:30pm  -   -  16 18 mph 1024.5mb - 50f
12:20pm  -   -  16 20 mph 1024.5mb - 50f
12:10pm  -   -  16 20 mph 1024.5mb - 50f
12:00pm 1.6ft 3s 16 20 mph 1024.5mb 53f 50f
11:50am  -   -  13 16 mph 1024.6mb - 50f
11:40am  -   -  13 16 mph 1024.6mb - 50f
11:30am  -   -  13 16 mph 1024.8mb - 50f
11:20am  -   -  13 16 mph 1024.8mb - 49f
11:10am  -   -  13 18 mph 1024.8mb - 49f
11:00am 1.6ft 3s 16 18 mph 1024.9mb 52f 49f
10:50am  -   -  16 18 mph 1025mb - 49f
10:40am  -   -  16 18 mph 1025.1mb - 49f
10:30am  -   -  16 18 mph 1025.1mb - 49f
10:20am  -   -  13 16 mph 1025.3mb - 49f
10:10am  -   -  13 16 mph 1025.2mb - 49f
10:00am 1.3ft 2s 13 18 mph 1025.3mb - 49f
9:50am  -   -  16 18 mph 1025.2mb - 49f
9:40am  -   -  16 18 mph 1025.1mb - 49f
9:30am  -   -  13 16 mph 1025.2mb - 49f
9:20am  -   -  13 16 mph 1025.2mb - 49f
9:10am  -   -  13 16 mph 1025.2mb - 49f
9:00am 1ft 2s 13 16 mph 1025.2mb 52f 49f
8:50am  -   -  13 16 mph 1025.2mb - 49f
8:40am  -   -  13
mph
1025.2mb - 49f
8:30am  -   -  11 13 mph 1025.1mb - 49f
8:20am  -   -  11 13 mph 1025mb - 49f
8:10am  -   -  11 13 mph 1024.8mb - 49f
8:00am 0.7ft  -  11 13 mph 1024.7mb 52f 49f
7:50am  -   -  11 13 mph 1024.7mb - 48f
7:40am  -   -  11 13 mph 1024.7mb - 48f
7:30am  -   -  11 13 mph 1024.5mb - 48f
7:20am  -   -  9 11 mph 1024.5mb - 48f
7:10am  -   -  9 11 mph 1024.4mb - 48f
7:00am 0.3ft  -  11 13 mph 1024.5mb 52f 48f
6:50am  -   -  13 16 mph 1024.3mb - 48f
6:40am  -   -  13 16 mph 1024.2mb - 48f
6:30am  -   -  11 13 mph 1024mb - 48f
6:20am  -   -  7 9 mph 1024.1mb - 47f
6:10am  -   -  7
mph
1024.1mb - 47f
6:00am 0.3ft  -  7 9 mph 1023.9mb 52f 47f
5:50am  -   -  7 9 mph 1023.8mb - 47f
5:40am  -   -  4 7 mph 1023.7mb - 47f
5:30am  -   -  4 7 mph 1023.7mb - 47f
5:20am  -   -  4 7 mph 1023.8mb - 47f
5:10am  -   -  4 7 mph 1023.8mb - 47f
5:00am 0.3ft  -  4 7 mph 1023.8mb 53f 47f
4:50am  -   -  4
mph
1023.8mb - 47f
4:40am  -   -  2 4 mph 1023.8mb - 47f
4:30am  -   -  2 4 mph 1023.8mb - 47f
4:20am  -   -  2 4 mph 1023.9mb - 46f
4:10am  -   -  4
mph
1023.9mb - 46f
4:00am 0.3ft  -  2 4 mph 1023.9mb - 46f
3:50am  -   -  2 4 mph 1023.9mb - 46f
3:40am  -   -  2 4 mph 1024mb - 46f
3:30am  -   -  2
mph
1024mb - 46f
3:20am  -   -  2 4 mph 1024mb - 46f
3:10am  -   -  2 4 mph 1024mb - 46f
3:00am 0.3ft  -  2 4 mph 1024.1mb 51f 46f
2:50am  -   -  2 4 mph 1024.1mb - 46f
2:40am  -   -  4 7 mph 1024mb - 46f
2:30am  -   -  4 9 mph 1024mb - 46f
2:20am  -   -  4 7 mph 1024mb - 46f
2:10am  -   -  2 4 mph 1024.5mb - 46f
2:00am 0.7ft  -   -  2 mph 1024.8mb 52f 46f
1:50am  -   -   -  2 mph 1024.9mb - 46f
1:40am  -   -   -  2 mph 1024.9mb - 46f
1:30am  -   -  2 4 mph 1025.1mb - 46f
1:20am  -   -  2 4 mph 1025.4mb - 46f
1:10am  -   -   -  2 mph 1025.6mb - 46f
1:00am 0.7ft  -   -  4 mph 1025.8mb 52f 46f
12:50am  -   -  2 4 mph 1026.1mb - 46f
12:40am  -   -  2 4 mph 1026.1mb - 46f
12:30am  -   -  2 7 mph 1026.2mb - 46f
12:20am  -   -  4 7 mph 1026.3mb - 46f
12:10am  -   -  4 9 mph 1026.2mb - 46f
12:00am 1ft 2s 4 7 mph 1026.2mb 52f 46f
Fri 04/18 11:50pm  -   -  4 7 mph 1026.1mb - 46f
11:40pm  -   -  4 7 mph 1026mb - 46f
11:30pm  -   -  4 7 mph 1026mb - 46f
11:20pm  -   -  7 9 mph 1025.7mb - 46f
11:10pm  -   -  7 9 mph 1025.7mb - 46f
11:00pm 1ft 2s 7 9 mph 1025.8mb 53f 46f
10:50pm  -   -  4 7 mph 1026mb - 46f
10:40pm  -   -  7 11 mph 1026mb - 46f
10:30pm  -   -  7 9 mph 1026.1mb - 46f
10:20pm  -   -  7 11 mph 1026.2mb - 46f
10:10pm  -   -  7 9 mph 1026.5mb - 46f
10:00pm 0.7ft  -  7 9 mph 1026.6mb 53f 46f
9:50pm  -   -  4 9 mph 1026.7mb - 46f
9:40pm  -   -  7 9 mph 1026.7mb - 46f
9:30pm  -   -  7 9 mph 1026.6mb - 47f
9:20pm  -   -  7 9 mph 1026.5mb - 47f
9:10pm  -   -  9 11 mph 1026.2mb - 47f
9:00pm 0.3ft  -  11 13 mph 1026.1mb 53f 47f
8:50pm  -   -  9 11 mph 1026.2mb - 47f
8:40pm  -   -  9 13 mph 1026.2mb - 47f
8:30pm  -   -  9 13 mph 1026.4mb - 48f
8:20pm  -   -  4 7 mph 1026.3mb - 47f
8:10pm  -   -  4 7 mph 1026.4mb - 48f
8:00pm  -   -  4 7 mph 1026.5mb 53f 47f
7:50pm  -   -  4 7 mph 1026.7mb - 47f
7:40pm  -   -  2 4 mph 1026.8mb - 47f
7:30pm  -   -  2 4 mph 1026.8mb - 47f
7:20pm  -   -  7 9 mph 1026.4mb - 47f
7:10pm  -   -  2 7 mph 1026.7mb - 47f
7:00pm 0.3ft  -  2 4 mph 1026.7mb 53f 47f
6:50pm  -   -  2 7 mph 1026.7mb - 47f
6:40pm  -   -   -  4 mph 1026.8mb - 47f
6:30pm  -   -  2 4 mph 1026.8mb - 48f
6:20pm  -   -  2 4 mph 1026.7mb - 47f
6:10pm  -   -   -  2 mph 1026.9mb - 48f
6:00pm 0.3ft  -   -  2 mph 1027.1mb 53f 48f
5:50pm  -   -   -  2 mph 1027.1mb - 47f
5:40pm  -   -   -  4 mph 1027mb - 47f
5:30pm  -   -  2 4 mph 1027.1mb - 47f
5:20pm  -   -  2 4 mph 1027.3mb - 47f
5:10pm  -   -  2 4 mph 1027.4mb - 47f
5:00pm 0.7ft  -   -  4 mph 1027.6mb 53f 47f
4:50pm  -   -   -  2 mph 1027.6mb - 47f
4:40pm  -   -  2 4 mph 1027.5mb - 47f
4:30pm  -   -  2 4 mph 1027.7mb - 47f
4:20pm  -   -   -  2 mph 1028.1mb - 47f
4:10pm  -   -   -  4 mph 1028.3mb - 47f
4:00pm 0.7ft  -  2 4 mph 1028.3mb 53f 47f
3:50pm  -   -  2 4 mph 1028.4mb - 47f
3:40pm  -   -  2 4 mph 1028.6mb - 47f
3:30pm  -   -  2 7 mph 1028.7mb - 47f
3:20pm  -   -  4 7 mph 1029.1mb - 46f
3:10pm  -   -  4 7 mph 1029.2mb - 46f
3:00pm 1ft 3s 4 7 mph 1029.3mb 51f 46f
2:50pm  -   -  4 7 mph 1029.4mb - 46f
2:40pm  -   -  4 7 mph 1029.6mb - 46f
2:30pm  -   -  7 9 mph 1029.5mb - 46f
2:20pm  -   -  7 11 mph 1029.7mb - 46f
2:10pm  -   -  7 9 mph 1030mb - 46f
2:00pm 1ft 3s 7 9 mph 1030.2mb 52f 46f
1:50pm  -   -  7 9 mph 1030.3mb - 46f
1:40pm  -   -  9 11 mph 1030.3mb - 46f
1:30pm  -   -  9 11 mph 1030.4mb - 46f
1:20pm  -   -  9 11 mph 1030.5mb - 46f
1:10pm  -   -  9 11 mph 1030.5mb - 46f
1:00pm 1ft 3s 7 11 mph 1030.7mb 52f 46f
12:50pm  -   -  9 11 mph 1030.8mb - 46f
12:40pm  -   -  9 11 mph 1030.8mb - 46f
12:30pm  -   -  7 11 mph 1031.1mb - 46f
12:20pm  -   -  7 9 mph 1031.3mb - 45f
12:10pm  -   -  7 9 mph 1031.4mb - 45f
12:00pm 1.3ft 3s 7 11 mph 1031.4mb 52f 45f
11:50am  -   -  9 11 mph 1031.4mb - 45f
11:40am  -   -  9 11 mph 1031.4mb - 44f
11:30am  -   -  9 11 mph 1031.5mb - 44f
11:20am  -   -  9 11 mph 1031.6mb - 45f
11:10am  -   -  9 11 mph 1031.7mb - 44f
11:00am 1.3ft 3s 9 11 mph 1032mb 52f 44f
10:50am  -   -  9 13 mph 1031.9mb - 44f
10:40am  -   -  9 11 mph 1031.8mb - 44f
10:30am  -   -  9 16 mph 1031.7mb - 44f
10:20am  -   -  9 13 mph 1031.9mb - 44f
10:10am  -   -  9 11 mph 1031.7mb - 44f
10:00am 1.6ft 3s 9 13 mph 1031.8mb 52f 44f
9:50am  -   -  11 13 mph 1031.7mb - 43f
9:40am  -   -  11 16 mph 1031.7mb - 43f
9:30am  -   -  11 16 mph 1031.8mb - 43f
9:20am  -   -  13 16 mph 1031.8mb - 43f
9:10am  -   -  13 16 mph 1031.8mb - 43f
9:00am 1.3ft 3s 13 16 mph 1031.8mb 52f 43f
8:50am  -   -  13 16 mph 1031.9mb - 43f
8:40am  -   -  13 16 mph 1031.9mb - 43f
7:50am  -   -  13 18 mph 1031.9mb - 43f
7:30am  -   -  13 18 mph 1031.7mb - 43f
4:10am  -   -  13 18 mph 1031.1mb - 42f
3:00am  -   -  11 16 mph 1032.1mb 51f 43f
2:40am  -   -  13 18 mph 1032.2mb - 43f
12:00am 2.5ft 3s 16 20 mph 1034.5mb 52f 44f
Thu 04/17 11:40pm  -   -  13 16 mph 1034.8mb - 44f
11:30pm  -   -  13 16 mph 1035.2mb - 44f
11:20pm  -   -  13 16 mph 1035.1mb - 44f
11:10pm  -   -  16 18 mph 1034.9mb - 44f
11:00pm 2.5ft 3s 16 20 mph 1034.5mb 51f 44f
10:50pm  -   -  18 20 mph 1034.1mb - 44f
10:40pm  -   -  18 22 mph 1034mb - 44f
10:30pm  -   -  18 22 mph 1034.2mb - 44f
10:20pm  -   -  18 22 mph 1034.2mb - 44f
10:10pm  -   -  18 22 mph 1034.3mb - 44f
10:00pm 2.5ft 3s 20 25 mph 1034.3mb 52f 44f
9:50pm  -   -  20 22 mph 1034.3mb - 45f
9:40pm  -   -  18 22 mph 1034.4mb - 45f
9:30pm  -   -  18 22 mph 1034.2mb - 45f
9:20pm  -   -  20 25 mph 1034.1mb - 45f
9:10pm  -   -  18 25 mph 1034.2mb - 45f
9:00pm 2.5ft 3s 20 22 mph 1034.3mb 52f 45f
8:50pm  -   -  18 22 mph 1034.2mb - 46f
8:40pm  -   -  18 22 mph 1034.3mb - 46f
8:30pm  -   -  18 22 mph 1034.3mb - 46f
8:20pm  -   -  18 22 mph 1034.4mb - 46f
8:10pm  -   -  18 22 mph 1034.5mb - 46f
8:00pm 2.5ft 3s 18 22 mph 1034.5mb 52f 46f
7:50pm  -   -  18 22 mph 1034.6mb - 46f
7:40pm  -   -  18 22 mph 1034.5mb - 46f
7:30pm  -   -  18 20 mph 1034.6mb - 47f
7:20pm  -   -  18 22 mph 1034.6mb - 47f
7:10pm  -   -  16 20 mph 1034.7mb - 47f
7:00pm 2.5ft 3s 18 20 mph 1034.7mb 52f 47f
6:50pm  -   -  18 20 mph 1034.7mb - 48f
6:40pm  -   -  18 20 mph 1034.7mb - 48f
6:30pm  -   -  16 20 mph 1034.7mb - 48f
6:20pm  -   -  16 20 mph 1034.7mb - 48f
6:10pm  -   -  16 20 mph 1034.7mb - 49f
6:00pm 2ft 3s 18 20 mph 1034.7mb 52f 49f
5:50pm  -   -  18 22 mph 1034.7mb - 49f
5:40pm  -   -  18 22 mph 1034.6mb - 49f
5:30pm  -   -  16 20 mph 1034.6mb - 49f
5:20pm  -   -  16 20 mph 1034.7mb - 49f
5:10pm  -   -  16 20 mph 1034.6mb - 49f
5:00pm 2ft 3s 16 18 mph 1034.5mb 52f 49f
4:50pm  -   -  16 18 mph 1034.5mb - 49f
4:40pm  -   -  16 18 mph 1034.6mb - 49f
4:30pm  -   -  16 18 mph 1034.7mb - 49f
4:20pm  -   -  16 18 mph 1034.7mb - 49f
4:10pm  -   -  16 18 mph 1034.8mb - 49f
4:00pm 2ft 3s 16 20 mph 1034.8mb 53f 49f
3:50pm  -   -  16 20 mph 1034.9mb - 49f
3:40pm  -   -  16 20 mph 1034.9mb - 49f
3:30pm  -   -  16 20 mph 1035mb - 49f
3:20pm  -   -  16 20 mph 1035.1mb - 49f
3:10pm  -   -  16 20 mph 1035.1mb - 48f
3:00pm 2.5ft 3s 16 20 mph 1035.3mb - 48f
2:50pm  -   -  16 20 mph 1035.4mb - 48f
2:40pm  -   -  16 20 mph 1035.5mb - 48f
2:30pm  -   -  16 20 mph 1035.6mb - 48f
2:20pm  -   -  16 20 mph 1035.6mb - 48f
2:00pm 2.5ft 3s 16 20 mph 1035.7mb 52f 48f
1:50pm  -   -  16 22 mph 1035.7mb - 48f
1:40pm  -   -  18 20 mph 1035.8mb - 47f
1:30pm  -   -  18 20 mph 1036mb - 47f
1:20pm  -   -  18 22 mph 1036mb - 47f
1:10pm  -   -  18 22 mph 1036mb - 47f
1:00pm 2.5ft 3s 18 22 mph 1036.1mb 52f 47f
12:50pm  -   -  18 22 mph 1036.3mb - 47f
12:40pm  -   -  18 22 mph 1036.4mb - 47f
12:30pm  -   -  20 22 mph 1036.4mb - 47f
12:20pm  -   -  18 22 mph 1036.5mb - 47f
12:10pm  -   -  18 22 mph 1036.7mb - 47f
12:00pm 2.5ft 3s 18 22 mph 1036.8mb 52f 47f
11:50am  -   -  18 20 mph 1036.9mb - 47f
11:40am  -   -  16 20 mph 1036.9mb - 47f
11:30am  -   -  16 20 mph 1036.9mb - 47f
11:20am  -   -  18 22 mph 1036.8mb - 47f
11:10am  -   -  16 20 mph 1036.8mb - 47f
11:00am 2.5ft 3s 18 22 mph 1036.6mb 52f 47f
10:50am  -   -  18 22 mph 1036.5mb - 47f
10:40am  -   -  20 22 mph 1036.5mb - 46f
10:30am  -   -  18 22 mph 1036.5mb - 46f
10:20am  -   -  20 22 mph 1036.5mb - 46f
10:10am  -   -  20 22 mph 1036.5mb - 46f
10:00am 2.5ft 3s 20 22 mph 1036.5mb 52f 46f
9:50am  -   -  20 25 mph 1036.4mb - 46f
9:40am  -   -  20 22 mph 1036.3mb - 46f
9:30am  -   -  20 25 mph 1036.2mb - 46f
9:20am  -   -  20 25 mph 1036.2mb - 46f
9:10am  -   -  20 22 mph 1036.2mb - 46f
9:00am 2.5ft 3s 18 22 mph 1036.2mb 52f 46f
8:50am  -   -  18 22 mph 1036.2mb - 46f
8:40am  -   -  18 22 mph 1036.2mb - 46f
8:30am  -   -  18 22 mph 1036.1mb - 46f
8:20am  -   -  18 22 mph 1036mb - 46f
8:10am  -   -  18 22 mph 1035.9mb - 46f
8:00am 2.5ft 3s 18 22 mph 1035.8mb 52f 46f
7:40am  -   -  18 22 mph 1035.7mb - 45f
7:30am  -   -  18 22 mph 1035.5mb - 45f
7:20am  -   -  18 20 mph 1035.5mb - 45f
7:10am  -   -  18 22 mph 1035.3mb - 45f
7:00am 2.5ft 3s 18 20 mph 1035.1mb 52f 45f
6:50am  -   -  18 22 mph 1035mb - 44f
6:40am  -   -  18 22 mph 1034.8mb - 44f
6:30am  -   -  16 22 mph 1034.7mb - 44f
6:20am  -   -  18 20 mph 1034.5mb - 44f
6:10am  -   -  18 22 mph 1034.4mb - 44f
6:00am 2.5ft 3s 18 22 mph 1034.3mb 52f 44f
5:50am  -   -  18 22 mph 1034.2mb - 44f
5:40am  -   -  18 22 mph 1034mb - 45f
5:30am  -   -  18 22 mph 1034mb - 45f
5:20am  -   -  18 22 mph 1034mb - 45f
5:10am  -   -  18 22 mph 1033.9mb - 45f
5:00am 2ft 3s 18 22 mph 1033.7mb 52f 45f
4:50am  -   -  16 20 mph 1033.7mb - 45f
4:40am  -   -  18 22 mph 1033.6mb - 45f
4:30am  -   -  16 22 mph 1033.6mb - 45f
4:20am  -   -  18 20 mph 1033.6mb - 45f
4:10am  -   -  18 22 mph 1033.5mb - 45f
4:00am 2ft 3s 16 20 mph 1033.4mb 52f 45f
3:50am  -   -  18 20 mph 1033.2mb - 45f
3:40am  -   -  18 20 mph 1033.2mb - 45f
3:30am  -   -  18 22 mph 1033.1mb - 45f
3:20am  -   -  18 20 mph 1033.1mb - 45f
3:10am  -   -  16 20 mph 1033.1mb - 45f
3:00am 1.6ft 3s 16 18 mph 1033mb 52f 44f
2:50am  -   -  13 20 mph 1033mb - 44f
2:40am  -   -  13 18 mph 1033.1mb - 44f
2:30am  -   -  13 18 mph 1033.2mb - 44f
2:20am  -   -  13 18 mph 1033.2mb - 44f
2:10am  -   -  13 16 mph 1033.3mb - 44f
2:00am 2ft 3s 13 18 mph 1033.3mb 52f 44f
1:50am  -   -  16 20 mph 1033.2mb - 44f
1:40am  -   -  16 20 mph 1033.2mb - 44f
1:30am  -   -  13 18 mph 1033.3mb - 44f
1:20am  -   -  16 18 mph 1033.3mb - 44f
1:10am  -   -  16 18 mph 1033.3mb - 44f
1:00am 1.6ft 3s 16 20 mph 1033.4mb 52f 44f
12:50am  -   -  16 20 mph 1033.3mb - 45f
12:40am  -   -  16 20 mph 1033.3mb - 45f
12:30am  -   -  13 18 mph 1033.3mb - 45f
12:20am  -   -  13 18 mph 1033.2mb - 45f
12:10am  -   -  13 18 mph 1033.2mb - 45f
12:00am 1.3ft 3s 13 18 mph 1033.2mb 53f 45f
Wed 04/16 11:50pm  -   -  13 18 mph 1033.2mb - 45f
11:40pm  -   -  13 16 mph 1033.2mb - 45f
11:30pm  -   -  13 16 mph 1033.2mb - 45f
11:20pm  -   -  13 16 mph 1033.1mb - 46f
11:10pm  -   -  13 16 mph 1033.1mb - 45f
11:00pm 1.3ft 3s 11 16 mph 1033mb 53f 45f
10:50pm  -   -  11 16 mph 1033mb - 45f
10:40pm  -   -  11 13 mph 1033.1mb - 45f
10:30pm  -   -  11 13 mph 1033mb - 45f
10:20pm  -   -  11 16 mph 1033mb - 45f
10:10pm  -   -  11 16 mph 1032.9mb - 45f
10:00pm 1ft 3s 13 16 mph 1032.8mb 53f 45f
9:50pm  -   -  11 16 mph 1032.7mb - 45f
9:40pm  -   -  11 13 mph 1032.5mb - 45f
9:30pm  -   -  11 18 mph 1032.3mb - 46f
9:20pm  -   -  11 18 mph 1032.1mb - 46f
9:10pm  -   -  16 20 mph 1032mb - 46f
9:00pm 1.3ft 3s 16 18 mph 1031.8mb 54f 46f
8:50pm  -   -  13 18 mph 1031.7mb - 46f
8:40pm  -   -  13 18 mph 1031.5mb - 46f
8:30pm  -   -  16 20 mph 1031.4mb - 46f
8:20pm  -   -  13 20 mph 1031.3mb - 46f
8:10pm  -   -  16 20 mph 1031.2mb - 46f
8:00pm 1.3ft 3s 16 20 mph 1031mb 54f 46f
7:50pm  -   -  16 20 mph 1030.9mb - 46f
7:40pm  -   -  16 22 mph 1030.8mb - 46f